Flight Track Log - Related Links

Times and Time Zones

All times are in EDT time to prevent confusion due to time zone crossing. See the N425M flight status page for this flight to view local times or setup timezone preferences in your user account.

Time Position Orientation Groundspeed Altitude Reporting Facility
EDT Latitude Longitude Course Direction KTS MPH feet Rate Location/Type
Wed 04:29:21 PM 40.7000 -73.4000 229° Southwest 178 205 2,200  Level New York TRACON
Wed 04:30:21 PM 40.6667 -73.4500 229° Southwest 249 287 4,000 1,400 Climbing New York TRACON
Wed 04:31:21 PM 40.6833 -73.5500 282° West 247 284 5,000 1,000 Climbing New York TRACON
Wed 04:32:21 PM 40.6833 -73.6333 270° West 258 297 6,000 550 Climbing New York TRACON
Wed 04:33:21 PM 40.6833 -73.7333 270° West 245 282 6,100 400 Climbing New York TRACON
Wed 04:34:21 PM 40.6500 -73.8167 242° Southwest 276 318 6,800 2,200 Climbing New York TRACON
Wed 04:35:21 PM 40.6000 -73.8833 225° Southwest 248 285 10,500 2,100 Climbing New York TRACON
Wed 04:36:21 PM 40.5333 -73.9333 210° Southwest 300 345 11,000 1,150 Climbing New York TRACON
Wed 04:37:21 PM 40.4667 -74.0167 224° Southwest 313 360 12,800 1,873 Climbing New York TRACON
Wed 04:39:14 PM 40.3703 -74.1953 235° Southwest 347 399 16,400 1,457 Climbing New York Center
Wed 04:40:14 PM 40.3256 -74.2992 241° Southwest 347 399 17,000 350 Climbing New York Center
Wed 04:41:14 PM 40.3386 -74.4142 279° West 337 388 17,100 900 Climbing New York Center
Wed 04:42:14 PM 40.3431 -74.5425 273° West 359 413 18,800 950 Climbing New York Center
Wed 04:43:14 PM 40.3428 -74.6786 270° West 372 428 19,000 100 Climbing New York Center
Wed 04:44:14 PM 40.3508 -74.8069 275° West 367 422 19,000  Level New York Center
Wed 04:45:15 PM 40.3272 -74.9444 257° West 362 417 19,000  Level New York Center
Wed 04:46:14 PM 40.3081 -75.0714 259° West 362 417 19,000  Level New York Center
Wed 04:47:14 PM 40.2889 -75.1953 259° West 362 417 19,000  Level New York Center
Wed 04:48:14 PM 40.2722 -75.3086 259° West 357 411 19,000  Level New York Center
Wed 04:49:15 PM 40.2547 -75.4325 260° West 352 405 19,000  Level New York Center
Wed 04:50:14 PM 40.2325 -75.5725 258° West 352 405 19,000  Level New York Center
Wed 04:51:14 PM 40.2128 -75.6961 258° West 352 405 19,000  Level New York Center
Wed 04:52:14 PM 40.1950 -75.8197 259° West 352 405 19,000  Level New York Center
Wed 04:53:14 PM 40.1781 -75.9272 258° West 352 405 19,000  Level New York Center
Wed 04:54:14 PM 40.1581 -76.0508 258° West 352 405 19,000 -500 Level New York Center
Wed 04:55:14 PM 40.1350 -76.1875 258° West 352 405 18,000 -942 Descending New York Center
Wed 04:56:15 PM 40.1150 -76.3053 258° West 344 396 17,100 -950 Descending New York Center
Wed 04:57:14 PM 40.0728 -76.4050 241° Southwest 328 377 16,100 -1,008 Descending New York Center
Wed 04:58:14 PM 40.0269 -76.4908 235° Southwest 318 366 15,100 -600 Descending New York Center
Wed 04:59:14 PM 39.9733 -76.6031 238° Southwest 327 376 14,900 -30 Descending New York Center
Wed 05:01:34 PM 39.8667 -76.8500 241° Southwest 327 376 15,000 31 Climbing Potomac TRACON
Wed 05:02:28 PM 39.8333 -76.9167 237° Southwest 294 338 15,000 -263 Level Potomac TRACON
Wed 05:03:28 PM 39.8167 -77.0000 255° West 229 264 14,500 -900 Descending Potomac TRACON
Wed 05:04:28 PM 39.8333 -77.0833 285° West 219 252 13,200 -1,550 Descending Potomac TRACON
Wed 05:05:28 PM 39.8167 -77.1500 252° West 206 237 11,400 -1,600 Descending Potomac TRACON
Wed 05:06:28 PM 39.8000 -77.2333 255° West 201 231 10,000 -1,750 Descending Potomac TRACON
Wed 05:07:28 PM 39.7500 -77.2500 194° South 187 215 7,900 -1,500 Descending Potomac TRACON
Wed 05:08:28 PM 39.7000 -77.2667 194° South 186 214 7,000 -474 Descending Potomac TRACON
Wed 05:09:22 PM 39.6500 -77.2833 194° South 197 227 7,000  Level Potomac TRACON
Wed 05:10:22 PM 39.6000 -77.3000 194° South 193 222 7,000  Level Potomac TRACON
Wed 05:11:17 PM 39.5500 -77.3167 194° South 192 221 7,000  Level Potomac TRACON
Wed 05:12:17 PM 39.5000 -77.3333 194° South 194 223 7,000  Level Potomac TRACON
Wed 05:13:17 PM 39.4500 -77.3667 207° Southwest 190 219 7,000 -550 Level Potomac TRACON
Wed 05:14:17 PM 39.4000 -77.3833 194° South 193 222 5,900 -1,053 Descending Potomac TRACON
Wed 05:15:11 PM 39.3667 -77.4000 201° Southwest 179 206 5,000 -474 Descending Potomac TRACON
Wed 05:16:11 PM 39.3167 -77.4167 194° South 190 219 5,000  Level Potomac TRACON
Wed 05:17:11 PM 39.2667 -77.4333 194° South 182 209 5,000  Level Potomac TRACON
Wed 05:18:11 PM 39.2167 -77.4500 194° South 163 188 5,000 -200 Level Potomac TRACON
Wed 05:19:11 PM 39.1667 -77.4500 180° South 159 183 4,600 -750 Descending Potomac TRACON
Wed 05:20:11 PM 39.1333 -77.4500 180° South 164 189 3,500 -1,000 Descending Potomac TRACON
Wed 05:21:11 PM 39.0833 -77.4500 180° South 161 185 2,600 -893 Descending Potomac TRACON
Wed 05:22:12 PM 39.0333 -77.4500 180° South 168 193 1,700 -850 Descending Potomac TRACON
Wed 05:23:11 PM 39.0000 -77.4667 201° Southwest 120 138 900 -814 Descending Potomac TRACON

Login

Don't have an account? Register now (free) for customized features, flight alerts, and more!